sensor_id;sensor_type;location;lat;lon;timestamp;pressure;altitude;pressure_sealevel;temperature;humidity
75867;BME280;64513;56.258;43.980;2023-03-01T00:04:45;98114.89;;;2.59;62.79
75867;BME280;64513;56.258;43.980;2023-03-01T00:07:31;98110.72;;;2.53;63.11
75867;BME280;64513;56.258;43.980;2023-03-01T00:09:55;98103.45;;;2.50;63.17
75867;BME280;64513;56.258;43.980;2023-03-01T00:12:39;98109.70;;;2.49;63.52
75867;BME280;64513;56.258;43.980;2023-03-01T00:15:04;98106.05;;;2.44;63.56
75867;BME280;64513;56.258;43.980;2023-03-01T00:17:28;98114.92;;;2.43;63.43
75867;BME280;64513;56.258;43.980;2023-03-01T00:19:52;98107.36;;;2.42;63.75
75867;BME280;64513;56.258;43.980;2023-03-01T00:22:16;98111.01;;;2.41;63.66
75867;BME280;64513;56.258;43.980;2023-03-01T00:24:40;98103.44;;;2.39;64.14
75867;BME280;64513;56.258;43.980;2023-03-01T00:27:04;98100.83;;;2.39;64.02
75867;BME280;64513;56.258;43.980;2023-03-01T00:29:29;98102.66;;;2.39;63.58
75867;BME280;64513;56.258;43.980;2023-03-01T00:32:16;98101.88;;;2.38;63.37
75867;BME280;64513;56.258;43.980;2023-03-01T00:34:49;98106.31;;;2.38;63.39
75867;BME280;64513;56.258;43.980;2023-03-01T00:37:33;98096.92;;;2.37;63.12
75867;BME280;64513;56.258;43.980;2023-03-01T00:42:27;98098.52;;;2.33;63.50
75867;BME280;64513;56.258;43.980;2023-03-01T00:44:51;98106.59;;;2.31;63.66
75867;BME280;64513;56.258;43.980;2023-03-01T00:47:17;98110.25;;;2.30;63.10
75867;BME280;64513;56.258;43.980;2023-03-01T00:50:01;98106.86;;;2.30;63.56
75867;BME280;64513;56.258;43.980;2023-03-01T00:52:45;98108.94;;;2.28;63.11
75867;BME280;64513;56.258;43.980;2023-03-01T00:55:10;98095.12;;;2.27;63.14
75867;BME280;64513;56.258;43.980;2023-03-01T00:58:09;98093.55;;;2.26;63.49
75867;BME280;64513;56.258;43.980;2023-03-01T01:00:31;98093.55;;;2.26;63.14
75867;BME280;64513;56.258;43.980;2023-03-01T01:03:04;98086.77;;;2.25;63.41
75867;BME280;64513;56.258;43.980;2023-03-01T01:05:46;98085.98;;;2.25;62.99
75867;BME280;64513;56.258;43.980;2023-03-01T01:08:02;98087.81;;;2.24;62.65
75867;BME280;64513;56.258;43.980;2023-03-01T01:13:49;98086.80;;;2.20;62.07
75867;BME280;64513;56.258;43.980;2023-03-01T01:15:40;98085.23;;;2.19;62.33
75867;BME280;64513;56.258;43.980;2023-03-01T01:23:36;98092.00;;;2.15;62.33
75867;BME280;64513;56.258;43.980;2023-03-01T01:26:24;98088.09;;;2.13;61.85
75867;BME280;64513;56.258;43.980;2023-03-01T01:28:49;98098.78;;;2.11;62.34
75867;BME280;64513;56.258;43.980;2023-03-01T01:31:13;98094.61;;;2.10;62.47
75867;BME280;64513;56.258;43.980;2023-03-01T01:33:38;98098.25;;;2.09;62.29
75867;BME280;64513;56.258;43.980;2023-03-01T01:36:02;98096.17;;;2.11;62.06
75867;BME280;64513;56.258;43.980;2023-03-01T01:38:26;98099.82;;;2.10;62.42
75867;BME280;64513;56.258;43.980;2023-03-01T01:40:51;98099.82;;;2.10;62.29
75867;BME280;64513;56.258;43.980;2023-03-01T01:57:47;98102.70;;;1.98;63.06
75867;BME280;64513;56.258;43.980;2023-03-01T02:06:06;98096.69;;;1.93;63.09
75867;BME280;64513;56.258;43.980;2023-03-01T02:09:22;98093.83;;;1.94;63.26
75867;BME280;64513;56.258;43.980;2023-03-01T02:14:20;98088.87;;;1.93;62.40
75867;BME280;64513;56.258;43.980;2023-03-01T02:16:45;98101.38;;;1.91;62.45
75867;BME280;64513;56.258;43.980;2023-03-01T02:19:13;98096.16;;;1.91;62.78
75867;BME280;64513;56.258;43.980;2023-03-01T02:27:33;98106.59;;;1.91;62.50
75867;BME280;64513;56.258;43.980;2023-03-01T02:29:55;98107.62;;;1.90;62.38
75867;BME280;64513;56.258;43.980;2023-03-01T02:32:20;98118.05;;;1.90;62.45
75867;BME280;64513;56.258;43.980;2023-03-01T02:34:46;98121.45;;;1.90;62.43
75867;BME280;64513;56.258;43.980;2023-03-01T02:37:13;98111.02;;;1.90;62.29
75867;BME280;64513;56.258;43.980;2023-03-01T02:42:30;98120.66;;;1.90;62.80
75867;BME280;64513;56.258;43.980;2023-03-01T02:44:53;98118.34;;;1.88;62.45
75867;BME280;64513;56.258;43.980;2023-03-01T02:47:17;98118.34;;;1.88;62.05
75867;BME280;64513;56.258;43.980;2023-03-01T02:49:41;98112.34;;;1.88;61.55
75867;BME280;64513;56.258;43.980;2023-03-01T02:55:12;98118.08;;;1.85;61.28
75867;BME280;64513;56.258;43.980;2023-03-01T02:57:39;98126.15;;;1.83;61.12
75867;BME280;64513;56.258;43.980;2023-03-01T03:00:58;98123.80;;;1.82;61.25
75867;BME280;64513;56.258;43.980;2023-03-01T03:02:51;98126.66;;;1.80;61.12
75867;BME280;64513;56.258;43.980;2023-03-01T03:08:04;98117.53;;;1.78;61.51
75867;BME280;64513;56.258;43.980;2023-03-01T03:10:49;98113.61;;;1.75;61.31
75867;BME280;64513;56.258;43.980;2023-03-01T03:13:14;98111.27;;;1.73;61.43
75867;BME280;64513;56.258;43.980;2023-03-01T03:15:39;98120.94;;;1.73;61.65
75867;BME280;64513;56.258;43.980;2023-03-01T03:18:06;98118.59;;;1.71;61.67
75867;BME280;64513;56.258;43.980;2023-03-01T03:20:30;98125.62;;;1.71;61.90
75867;BME280;64513;56.258;43.980;2023-03-01T03:22:55;98122.23;;;1.70;61.71
75867;BME280;64513;56.258;43.980;2023-03-01T03:25:20;98126.91;;;1.68;61.77
75867;BME280;64513;56.258;43.980;2023-03-01T03:27:46;98127.16;;;1.67;61.86
75867;BME280;64513;56.258;43.980;2023-03-01T03:30:13;98131.06;;;1.64;62.32
75867;BME280;64513;56.258;43.980;2023-03-01T03:32:38;98133.67;;;1.64;62.60
75867;BME280;64513;56.258;43.980;2023-03-01T03:35:04;98125.33;;;1.62;62.57
75867;BME280;64513;56.258;43.980;2023-03-01T03:37:30;98129.75;;;1.62;62.50
75867;BME280;64513;56.258;43.980;2023-03-01T03:40:14;98133.39;;;1.61;62.34
75867;BME280;64513;56.258;43.980;2023-03-01T03:42:38;98131.05;;;1.59;62.98
75867;BME280;64513;56.258;43.980;2023-03-01T03:45:03;98131.58;;;1.56;62.78
75867;BME280;64513;56.258;43.980;2023-03-01T03:47:27;98135.23;;;1.55;63.02
75867;BME280;64513;56.258;43.980;2023-03-01T03:49:51;98137.05;;;1.55;63.06
75867;BME280;64513;56.258;43.980;2023-03-01T03:52:15;98138.87;;;1.54;63.02
75867;BME280;64513;56.258;43.980;2023-03-01T03:54:40;98129.48;;;1.53;63.16
75867;BME280;64513;56.258;43.980;2023-03-01T03:57:04;98145.64;;;1.55;63.11
75867;BME280;64513;56.258;43.980;2023-03-01T03:59:29;98133.66;;;1.54;63.01
75867;BME280;64513;56.258;43.980;2023-03-01T04:01:53;98130.02;;;1.55;62.92
75867;BME280;64513;56.258;43.980;2023-03-01T04:04:17;98137.83;;;1.55;62.97
75867;BME280;64513;56.258;43.980;2023-03-01T04:06:41;98138.61;;;1.56;63.12
75867;BME280;64513;56.258;43.980;2023-03-01T04:09:05;98134.19;;;1.56;62.84
75867;BME280;64513;56.258;43.980;2023-03-01T04:11:29;98141.22;;;1.56;62.54
75867;BME280;64513;56.258;43.980;2023-03-01T04:13:57;98141.22;;;1.56;62.70
75867;BME280;64513;56.258;43.980;2023-03-01T04:16:21;98136.80;;;1.56;62.10
75867;BME280;64513;56.258;43.980;2023-03-01T04:18:46;98140.44;;;1.55;62.02
75867;BME280;64513;56.258;43.980;2023-03-01T04:21:10;98155.81;;;1.57;62.33
75867;BME280;64513;56.258;43.980;2023-03-01T04:23:34;98151.64;;;1.56;61.98
75867;BME280;64513;56.258;43.980;2023-03-01T04:25:59;98153.46;;;1.55;62.54
75867;BME280;64513;56.258;43.980;2023-03-01T04:28:26;98158.42;;;1.57;62.73
75867;BME280;64513;56.258;43.980;2023-03-01T04:30:51;98152.42;;;1.56;62.59
75867;BME280;64513;56.258;43.980;2023-03-01T04:33:15;98147.21;;;1.56;62.64
75867;BME280;64513;56.258;43.980;2023-03-01T04:35:40;98158.13;;;1.58;62.94
75867;BME280;64513;56.258;43.980;2023-03-01T04:38:05;98163.63;;;1.57;62.69
75867;BME280;64513;56.258;43.980;2023-03-01T04:40:29;98156.59;;;1.57;62.81
75867;BME280;64513;56.258;43.980;2023-03-01T04:42:53;98164.66;;;1.61;62.94
75867;BME280;64513;56.258;43.980;2023-03-01T04:45:17;98172.47;;;1.61;62.73
75867;BME280;64513;56.258;43.980;2023-03-01T04:47:43;98170.40;;;1.63;62.66
75867;BME280;64513;56.258;43.980;2023-03-01T04:50:08;98173.79;;;1.63;62.67
75867;BME280;64513;56.258;43.980;2023-03-01T04:52:33;98171.71;;;1.65;62.77
75867;BME280;64513;56.258;43.980;2023-03-01T04:54:57;98178.48;;;1.66;62.33
75867;BME280;64513;56.258;43.980;2023-03-01T04:57:21;98171.45;;;1.67;62.21
75867;BME280;64513;56.258;43.980;2023-03-01T04:59:45;98177.45;;;1.67;62.46
75867;BME280;64513;56.258;43.980;2023-03-01T05:02:09;98172.77;;;1.69;62.17
75867;BME280;64513;56.258;43.980;2023-03-01T05:04:34;98176.69;;;1.72;62.23
75867;BME280;64513;56.258;43.980;2023-03-01T05:06:58;98171.48;;;1.72;61.96
75867;BME280;64513;56.258;43.980;2023-03-01T05:09:22;98171.73;;;1.75;62.31
75867;BME280;64513;56.258;43.980;2023-03-01T05:11:46;98179.03;;;1.79;62.30
75867;BME280;64513;56.258;43.980;2023-03-01T05:14:12;98174.35;;;1.81;62.14
75867;BME280;64513;56.258;43.980;2023-03-01T05:16:37;98184.27;;;1.84;62.04
75867;BME280;64513;56.258;43.980;2023-03-01T05:19:01;98176.98;;;1.86;61.79
75867;BME280;64513;56.258;43.980;2023-03-01T05:21:45;98184.29;;;1.89;61.69
75867;BME280;64513;56.258;43.980;2023-03-01T05:24:32;98179.57;;;1.91;61.46
75867;BME280;64513;56.258;43.980;2023-03-01T05:26:57;98175.92;;;1.92;61.66
75867;BME280;64513;56.258;43.980;2023-03-01T05:29:23;98189.48;;;1.94;61.94
75867;BME280;64513;56.258;43.980;2023-03-01T05:31:48;98187.41;;;1.96;61.58
75867;BME280;64513;56.258;43.980;2023-03-01T05:34:12;98185.33;;;1.98;61.50
75867;BME280;64513;56.258;43.980;2023-03-01T05:36:37;98176.75;;;2.02;61.64
75867;BME280;64513;56.258;43.980;2023-03-01T05:39:05;98174.65;;;2.09;61.75
75867;BME280;64513;56.258;43.980;2023-03-01T05:41:29;98182.23;;;2.16;61.25
75867;BME280;64513;56.258;43.980;2023-03-01T05:43:54;98190.03;;;2.21;61.36
75867;BME280;64513;56.258;43.980;2023-03-01T05:48:46;98193.72;;;2.35;61.05
75867;BME280;64513;56.258;43.980;2023-03-01T05:51:12;98191.60;;;2.53;60.92
75867;BME280;64513;56.258;43.980;2023-03-01T05:53:36;98197.62;;;2.63;61.09
75867;BME280;64513;56.258;43.980;2023-03-01T05:58:48;98195.71;;;2.99;60.53
75867;BME280;64513;56.258;43.980;2023-03-01T06:01:13;98209.24;;;3.22;60.24
75867;BME280;64513;56.258;43.980;2023-03-01T06:03:37;98207.31;;;3.47;60.07
75867;BME280;64513;56.258;43.980;2023-03-01T06:06:01;98208.47;;;3.80;59.36
75867;BME280;64513;56.258;43.980;2023-03-01T06:08:25;98223.08;;;3.92;59.03
75867;BME280;64513;56.258;43.980;2023-03-01T06:10:49;98208.95;;;3.93;59.15
75867;BME280;64513;56.258;43.980;2023-03-01T06:13:14;98204.06;;;4.20;58.77
75867;BME280;64513;56.258;43.980;2023-03-01T06:15:38;98217.37;;;4.57;58.00
75867;BME280;64513;56.258;43.980;2023-03-01T06:18:02;98216.92;;;4.50;57.96
75867;BME280;64513;56.258;43.980;2023-03-01T06:20:28;98217.43;;;4.52;58.03
75867;BME280;64513;56.258;43.980;2023-03-01T06:22:52;98223.12;;;4.59;58.05
75867;BME280;64513;56.258;43.980;2023-03-01T06:25:19;98218.73;;;4.84;57.38
75867;BME280;64513;56.258;43.980;2023-03-01T06:27:44;98217.34;;;4.91;57.26
75867;BME280;64513;56.258;43.980;2023-03-01T06:30:11;98221.75;;;4.96;56.99
75867;BME280;64513;56.258;43.980;2023-03-01T06:32:37;98212.41;;;5.14;57.42
75867;BME280;64513;56.258;43.980;2023-03-01T06:35:21;98215.77;;;5.19;57.15
75867;BME280;64513;56.258;43.980;2023-03-01T06:37:47;98215.69;;;5.24;56.99
75867;BME280;64513;56.258;43.980;2023-03-01T06:40:12;98211.89;;;5.36;56.44
75867;BME280;64513;56.258;43.980;2023-03-01T06:42:36;98196.98;;;5.55;55.57
75867;BME280;64513;56.258;43.980;2023-03-01T06:45:02;98207.37;;;5.65;55.83
75867;BME280;64513;56.258;43.980;2023-03-01T06:47:27;98197.30;;;5.72;55.57
75867;BME280;64513;56.258;43.980;2023-03-01T06:49:51;98194.17;;;5.70;55.71
75867;BME280;64513;56.258;43.980;2023-03-01T06:52:16;98199.36;;;5.75;55.64
75867;BME280;64513;56.258;43.980;2023-03-01T06:54:40;98203.03;;;5.98;55.39
75867;BME280;64513;56.258;43.980;2023-03-01T06:57:07;98200.75;;;5.91;55.90
75867;BME280;64513;56.258;43.980;2023-03-01T06:59:33;98205.44;;;5.94;55.43
75867;BME280;64513;56.258;43.980;2023-03-01T07:01:57;98194.72;;;5.91;55.63
75867;BME280;64513;56.258;43.980;2023-03-01T07:04:22;98199.19;;;5.90;55.39
75867;BME280;64513;56.258;43.980;2023-03-01T07:06:46;98193.94;;;5.90;55.16
75867;BME280;64513;56.258;43.980;2023-03-01T07:09:12;98205.99;;;5.91;55.36
75867;BME280;64513;56.258;43.980;2023-03-01T07:11:40;98191.06;;;5.87;54.90
75867;BME280;64513;56.258;43.980;2023-03-01T07:14:04;98186.69;;;5.82;54.72
75867;BME280;64513;56.258;43.980;2023-03-01T07:16:50;98200.36;;;5.79;54.73
75867;BME280;64513;56.258;43.980;2023-03-01T07:19:17;98193.61;;;5.73;54.71
75867;BME280;64513;56.258;43.980;2023-03-01T07:21:41;98190.27;;;5.68;54.67
75867;BME280;64513;56.258;43.980;2023-03-01T07:24:08;98200.56;;;5.64;54.70
75867;BME280;64513;56.258;43.980;2023-03-01T07:26:32;98207.37;;;5.65;54.65
75867;BME280;64513;56.258;43.980;2023-03-01T07:31:42;98198.16;;;5.86;54.57
75867;BME280;64513;56.258;43.980;2023-03-01T07:34:06;98207.00;;;5.95;54.05
75867;BME280;64513;56.258;43.980;2023-03-01T07:36:31;98207.50;;;5.97;53.91
75867;BME280;64513;56.258;43.980;2023-03-01T07:38:55;98203.31;;;5.96;53.92
75867;BME280;64513;56.258;43.980;2023-03-01T07:41:19;98208.75;;;6.00;53.88
75867;BME280;64513;56.258;43.980;2023-03-01T07:43:44;98207.97;;;5.99;54.19
75867;BME280;64513;56.258;43.980;2023-03-01T07:46:08;98207.97;;;5.99;53.97
75867;BME280;64513;56.258;43.980;2023-03-01T07:48:33;98209.53;;;6.01;53.66
75867;BME280;64513;56.258;43.980;2023-03-01T07:51:17;98206.41;;;5.98;53.44
75867;BME280;64513;56.258;43.980;2023-03-01T07:53:41;98204.28;;;6.01;53.74
75867;BME280;64513;56.258;43.980;2023-03-01T07:56:26;98198.41;;;6.09;53.48
75867;BME280;64513;56.258;43.980;2023-03-01T07:58:50;98198.34;;;6.14;53.37
75867;BME280;64513;56.258;43.980;2023-03-01T08:01:17;98202.59;;;6.10;53.19
75867;BME280;64513;56.258;43.980;2023-03-01T08:03:42;98202.81;;;6.13;53.66
75867;BME280;64513;56.258;43.980;2023-03-01T08:06:08;98203.59;;;6.14;53.00
75867;BME280;64513;56.258;43.980;2023-03-01T08:08:32;98201.94;;;6.18;53.11
75867;BME280;64513;56.258;43.980;2023-03-01T08:10:58;98213.50;;;6.17;53.20
75867;BME280;64513;56.258;43.980;2023-03-01T08:13:22;98201.44;;;6.16;52.95
75867;BME280;64513;56.258;43.980;2023-03-01T08:15:47;98203.78;;;6.17;52.78
75867;BME280;64513;56.258;43.980;2023-03-01T08:18:11;98205.34;;;6.18;52.91
75867;BME280;64513;56.258;43.980;2023-03-01T08:20:35;98207.47;;;6.16;52.50
75867;BME280;64513;56.258;43.980;2023-03-01T08:22:59;98198.81;;;6.16;52.60
75867;BME280;64513;56.258;43.980;2023-03-01T08:25:23;98207.84;;;6.10;52.46
75867;BME280;64513;56.258;43.980;2023-03-01T08:27:47;98226.83;;;6.02;52.31
75867;BME280;64513;56.258;43.980;2023-03-01T08:30:12;98222.15;;;5.98;52.78
75867;BME280;64513;56.258;43.980;2023-03-01T08:32:38;98219.61;;;5.93;52.79
75867;BME280;64513;56.258;43.980;2023-03-01T08:35:03;98219.92;;;5.87;52.77
75867;BME280;64513;56.258;43.980;2023-03-01T08:37:27;98240.21;;;5.81;52.78
75867;BME280;64513;56.258;43.980;2023-03-01T08:39:53;98242.61;;;5.78;52.98
75867;BME280;64513;56.258;43.980;2023-03-01T08:42:17;98232.40;;;5.76;52.83
75867;BME280;64513;56.258;43.980;2023-03-01T08:44:41;98253.66;;;5.75;52.46
75867;BME280;64513;56.258;43.980;2023-03-01T08:47:05;98240.32;;;5.71;52.82
75867;BME280;64513;56.258;43.980;2023-03-01T08:49:29;98224.08;;;5.69;52.91
75867;BME280;64513;56.258;43.980;2023-03-01T08:51:54;98234.06;;;5.67;52.67
75867;BME280;64513;56.258;43.980;2023-03-01T08:54:20;98253.56;;;5.61;52.47
75867;BME280;64513;56.258;43.980;2023-03-01T08:56:45;98263.04;;;5.57;52.10
75867;BME280;64513;56.258;43.980;2023-03-01T08:59:10;98254.44;;;5.51;52.21
75867;BME280;64513;56.258;43.980;2023-03-01T09:01:34;98262.11;;;5.48;52.22
75867;BME280;64513;56.258;43.980;2023-03-01T09:03:59;98252.68;;;5.47;52.16
75867;BME280;64513;56.258;43.980;2023-03-01T09:06:23;98258.47;;;5.44;52.19
75867;BME280;64513;56.258;43.980;2023-03-01T09:08:48;98261.38;;;5.42;52.17
75867;BME280;64513;56.258;43.980;2023-03-01T09:11:15;98252.22;;;5.40;52.21
75867;BME280;64513;56.258;43.980;2023-03-01T09:13:40;98242.79;;;5.39;52.23
75867;BME280;64513;56.258;43.980;2023-03-01T09:16:06;98251.20;;;5.36;52.14
75867;BME280;64513;56.258;43.980;2023-03-01T09:18:30;98264.11;;;5.32;51.91
75867;BME280;64513;56.258;43.980;2023-03-01T09:21:15;98263.33;;;5.32;52.14
75867;BME280;64513;56.258;43.980;2023-03-01T09:23:42;98257.58;;;5.29;52.33
75867;BME280;64513;56.258;43.980;2023-03-01T09:26:09;98263.60;;;5.30;52.36
75867;BME280;64513;56.258;43.980;2023-03-01T09:28:33;98252.89;;;5.26;52.36
75867;BME280;64513;56.258;43.980;2023-03-01T09:31:18;98248.70;;;5.25;52.17
75867;BME280;64513;56.258;43.980;2023-03-01T09:33:45;98264.16;;;5.27;52.50
75867;BME280;64513;56.258;43.980;2023-03-01T09:36:11;98263.37;;;5.26;52.57
75867;BME280;64513;56.258;43.980;2023-03-01T09:38:35;98251.20;;;5.36;52.28
75867;BME280;64513;56.258;43.980;2023-03-01T09:41:01;98256.45;;;5.36;52.20
75867;BME280;64513;56.258;43.980;2023-03-01T09:46:40;98251.82;;;5.51;52.34
75867;BME280;64513;56.258;43.980;2023-03-01T09:54:29;98242.62;;;5.54;52.19
75867;BME280;64513;56.258;43.980;2023-03-01T10:09:12;98248.31;;;5.61;52.02
75867;BME280;64513;56.258;43.980;2023-03-01T10:11:39;98248.87;;;5.58;51.87
75867;BME280;64513;56.258;43.980;2023-03-01T10:14:13;98235.26;;;5.56;51.82
75867;BME280;64513;56.258;43.980;2023-03-01T10:19:57;98241.51;;;5.60;51.87
75867;BME280;64513;56.258;43.980;2023-03-01T10:22:42;98236.27;;;5.60;51.45
75867;BME280;64513;56.258;43.980;2023-03-01T10:25:12;98261.98;;;5.58;51.59
75867;BME280;64513;56.258;43.980;2023-03-01T10:30:28;98267.86;;;5.50;51.38
75867;BME280;64513;56.258;43.980;2023-03-01T10:32:50;98256.36;;;5.46;51.47
75867;BME280;64513;56.258;43.980;2023-03-01T10:35:35;98253.51;;;5.42;51.21
75867;BME280;64513;56.258;43.980;2023-03-01T10:38:21;98258.02;;;5.37;51.06
75867;BME280;64513;56.258;43.980;2023-03-01T10:41:06;98258.36;;;5.30;51.11
75867;BME280;64513;56.258;43.980;2023-03-01T10:46:36;98257.34;;;5.26;51.41
75867;BME280;64513;56.258;43.980;2023-03-01T10:54:54;98248.31;;;5.13;50.95
75867;BME280;64513;56.258;43.980;2023-03-01T10:57:39;98262.73;;;5.11;51.01
75867;BME280;64513;56.258;43.980;2023-03-01T11:05:35;98258.11;;;5.03;51.21
75867;BME280;64513;56.258;43.980;2023-03-01T11:08:01;98251.58;;;5.00;51.21
75867;BME280;64513;56.258;43.980;2023-03-01T11:13:31;98253.19;;;4.96;50.94
75867;BME280;64513;56.258;43.980;2023-03-01T11:16:17;98255.30;;;4.94;51.09
75867;BME280;64513;56.258;43.980;2023-03-01T11:18:42;98235.39;;;4.93;51.58
75867;BME280;64513;56.258;43.980;2023-03-01T11:21:08;98229.65;;;4.91;51.46
75867;BME280;64513;56.258;43.980;2023-03-01T11:23:34;98245.91;;;4.88;51.32
75867;BME280;64513;56.258;43.980;2023-03-01T11:28:49;98246.48;;;4.85;51.35
75867;BME280;64513;56.258;43.980;2023-03-01T11:31:12;98245.47;;;4.81;51.18
75867;BME280;64513;56.258;43.980;2023-03-01T11:33:41;98256.48;;;4.78;51.25
75867;BME280;64513;56.258;43.980;2023-03-01T11:45:21;98259.70;;;4.70;51.13
75867;BME280;64513;56.258;43.980;2023-03-01T11:48:09;98253.17;;;4.67;51.16
75867;BME280;64513;56.258;43.980;2023-03-01T11:50:52;98250.83;;;4.66;50.96
75867;BME280;64513;56.258;43.980;2023-03-01T11:56:42;98251.88;;;4.65;57.65
75867;BME280;64513;56.258;43.980;2023-03-01T12:25:37;98261.02;;;6.34;67.53
75867;BME280;64513;56.258;43.980;2023-03-01T12:40:42;98275.68;;;7.05;54.48
75867;BME280;64513;56.258;43.980;2023-03-01T12:50:05;98288.34;;;6.52;52.37
75867;BME280;64513;56.258;43.980;2023-03-01T12:52:02;98277.55;;;6.34;51.96
75867;BME280;64513;56.258;43.980;2023-03-01T12:55:00;98263.86;;;6.19;51.32
75867;BME280;64513;56.258;43.980;2023-03-01T12:56:57;98266.91;;;6.07;50.88
75867;BME280;64513;56.258;43.980;2023-03-01T13:06:26;98267.05;;;5.73;50.00
75867;BME280;64513;56.258;43.980;2023-03-01T13:16:58;98281.13;;;5.35;49.93
75867;BME280;64513;56.258;43.980;2023-03-01T13:19:25;98280.66;;;5.27;49.86
75867;BME280;64513;56.258;43.980;2023-03-01T13:22:30;98282.54;;;5.22;49.86
75867;BME280;64513;56.258;43.980;2023-03-01T13:25:16;98273.18;;;5.16;49.45
75867;BME280;64513;56.258;43.980;2023-03-01T13:27:42;98287.65;;;5.08;49.51
75867;BME280;64513;56.258;43.980;2023-03-01T13:36:02;98275.23;;;4.90;49.65
75867;BME280;64513;56.258;43.980;2023-03-01T13:41:54;98268.02;;;4.77;49.24
75867;BME280;64513;56.258;43.980;2023-03-01T13:44:42;98278.30;;;4.68;49.38
75867;BME280;64513;56.258;43.980;2023-03-01T13:47:26;98280.17;;;4.63;49.69
75867;BME280;64513;56.258;43.980;2023-03-01T13:52:58;98284.19;;;4.50;49.74
75867;BME280;64513;56.258;43.980;2023-03-01T13:58:30;98288.20;;;4.37;49.94
75867;BME280;64513;56.258;43.980;2023-03-01T14:04:01;98286.69;;;4.26;49.89
75867;BME280;64513;56.258;43.980;2023-03-01T14:09:32;98293.03;;;4.15;50.00
75867;BME280;64513;56.258;43.980;2023-03-01T14:21:12;98286.62;;;3.92;50.18
75867;BME280;64513;56.258;43.980;2023-03-01T14:23:38;98285.84;;;3.86;50.60
75867;BME280;64513;56.258;43.980;2023-03-01T14:26:04;98286.64;;;3.82;50.59
75867;BME280;64513;56.258;43.980;2023-03-01T14:30:59;98290.08;;;3.77;50.68
75867;BME280;64513;56.258;43.980;2023-03-01T14:33:44;98286.95;;;3.75;50.88
75867;BME280;64513;56.258;43.980;2023-03-01T14:36:12;98294.27;;;3.73;50.96
75867;BME280;64513;56.258;43.980;2023-03-01T14:38:39;98297.41;;;3.70;50.94
75867;BME280;64513;56.258;43.980;2023-03-01T14:41:25;98283.05;;;3.68;50.77
75867;BME280;64513;56.258;43.980;2023-03-01T14:43:52;98292.20;;;3.65;51.07
75867;BME280;64513;56.258;43.980;2023-03-01T14:46:39;98297.95;;;3.62;51.13
75867;BME280;64513;56.258;43.980;2023-03-01T14:49:25;98285.44;;;3.59;51.11
75867;BME280;64513;56.258;43.980;2023-03-01T14:54:39;98297.98;;;3.52;50.62
75867;BME280;64513;56.258;43.980;2023-03-01T14:57:03;98286.49;;;3.48;50.47
75867;BME280;64513;56.258;43.980;2023-03-01T14:59:28;98299.06;;;3.46;50.42
75867;BME280;64513;56.258;43.980;2023-03-01T15:02:25;98301.42;;;3.42;50.54
75867;BME280;64513;56.258;43.980;2023-03-01T15:04:21;98306.12;;;3.40;50.44
75867;BME280;64513;56.258;43.980;2023-03-01T15:06:50;98306.39;;;3.39;50.41
75867;BME280;64513;56.258;43.980;2023-03-01T15:09:16;98305.86;;;3.37;50.36
75867;BME280;64513;56.258;43.980;2023-03-01T15:11:41;98313.19;;;3.35;50.51
75867;BME280;64513;56.258;43.980;2023-03-01T15:16:51;98308.48;;;3.32;50.54
75867;BME280;64513;56.258;43.980;2023-03-01T15:19:16;98315.30;;;3.28;50.55
75867;BME280;64513;56.258;43.980;2023-03-01T15:21:44;98315.56;;;3.26;50.63
75867;BME280;64513;56.258;43.980;2023-03-01T15:24:29;98309.55;;;3.26;50.87
75867;BME280;64513;56.258;43.980;2023-03-01T15:27:16;98316.86;;;3.24;50.92
75867;BME280;64513;56.258;43.980;2023-03-01T15:29:43;98318.95;;;3.22;50.85
75867;BME280;64513;56.258;43.980;2023-03-01T15:41:21;98321.06;;;3.09;50.87
75867;BME280;64513;56.258;43.980;2023-03-01T15:43:51;98327.59;;;3.07;50.88
75867;BME280;64513;56.258;43.980;2023-03-01T15:46:20;98322.88;;;3.04;50.81
75867;BME280;64513;56.258;43.980;2023-03-01T15:48:47;98318.70;;;3.03;50.76
75867;BME280;64513;56.258;43.980;2023-03-01T15:51:14;98326.02;;;3.01;50.82
75867;BME280;64513;56.258;43.980;2023-03-01T15:53:39;98322.61;;;3.00;50.70
75867;BME280;64513;56.258;43.980;2023-03-01T15:56:04;98321.05;;;2.99;50.80
75867;BME280;64513;56.258;43.980;2023-03-01T15:58:29;98314.28;;;2.98;50.70
75867;BME280;64513;56.258;43.980;2023-03-01T16:00:54;98319.51;;;2.98;50.61
75867;BME280;64513;56.258;43.980;2023-03-01T16:03:18;98314.55;;;2.97;50.80
75867;BME280;64513;56.258;43.980;2023-03-01T16:05:43;98325.25;;;2.95;50.63
75867;BME280;64513;56.258;43.980;2023-03-01T16:08:08;98318.45;;;2.94;50.84
75867;BME280;64513;56.258;43.980;2023-03-01T16:10:33;98313.23;;;2.94;50.88
75867;BME280;64513;56.258;43.980;2023-03-01T16:12:58;98316.89;;;2.93;50.93
75867;BME280;64513;56.258;43.980;2023-03-01T16:15:25;98320.54;;;2.92;50.93
75867;BME280;64513;56.258;43.980;2023-03-01T16:17:50;98324.20;;;2.91;50.91
75867;BME280;64513;56.258;43.980;2023-03-01T16:20:15;98321.58;;;2.91;51.00
75867;BME280;64513;56.258;43.980;2023-03-01T16:22:40;98322.88;;;2.89;51.07
75867;BME280;64513;56.258;43.980;2023-03-01T16:25:05;98322.88;;;2.89;51.07
75867;BME280;64513;56.258;43.980;2023-03-01T16:27:30;98316.87;;;2.88;51.17
75867;BME280;64513;56.258;43.980;2023-03-01T16:29:56;98316.09;;;2.88;51.09
75867;BME280;64513;56.258;43.980;2023-03-01T16:34:48;98325.22;;;2.85;51.01
75867;BME280;64513;56.258;43.980;2023-03-01T16:37:12;98335.67;;;2.85;51.09
75867;BME280;64513;56.258;43.980;2023-03-01T16:39:38;98330.45;;;2.85;51.19
75867;BME280;64513;56.258;43.980;2023-03-01T16:42:03;98323.66;;;2.84;51.29
75867;BME280;64513;56.258;43.980;2023-03-01T16:44:29;98327.34;;;2.83;51.12
75867;BME280;64513;56.258;43.980;2023-03-01T16:46:54;98314.28;;;2.83;51.10
75867;BME280;64513;56.258;43.980;2023-03-01T16:49:21;98313.76;;;2.81;51.15
75867;BME280;64513;56.258;43.980;2023-03-01T16:51:45;98312.19;;;2.80;51.20
75867;BME280;64513;56.258;43.980;2023-03-01T16:54:14;98312.19;;;2.80;51.08